createdAt,value
2022-10-20T00:00:44.618Z,11.27
2022-10-20T00:01:44.667Z,11.28
2022-10-20T00:02:44.591Z,11.28
2022-10-20T00:03:44.607Z,11.28
2022-10-20T00:04:44.544Z,11.28
2022-10-20T00:05:44.631Z,11.25
2022-10-20T00:06:44.533Z,11.27
2022-10-20T00:07:44.577Z,11.28
2022-10-20T00:08:44.555Z,11.28
2022-10-20T00:09:44.551Z,11.28
2022-10-20T00:10:44.499Z,11.27
2022-10-20T00:11:44.470Z,11.27
2022-10-20T00:12:44.434Z,11.28
2022-10-20T00:13:44.443Z,11.27
2022-10-20T00:14:44.448Z,11.27
2022-10-20T00:15:44.469Z,11.27
2022-10-20T00:16:44.378Z,11.30
2022-10-20T00:17:44.439Z,11.27
2022-10-20T00:18:44.353Z,11.28
2022-10-20T00:19:44.364Z,11.30
2022-10-20T00:20:44.327Z,11.30
2022-10-20T00:21:44.383Z,11.30
2022-10-20T00:22:44.303Z,11.28
2022-10-20T00:23:44.313Z,11.31
2022-10-20T00:24:44.303Z,11.27
2022-10-20T00:25:44.330Z,11.27
2022-10-20T00:26:44.261Z,11.27
2022-10-20T00:27:44.334Z,11.28
2022-10-20T00:28:44.230Z,11.27
2022-10-20T00:29:44.254Z,11.25
2022-10-20T00:30:44.190Z,11.27
2022-10-20T00:31:44.228Z,11.25
2022-10-20T00:32:44.178Z,11.25
2022-10-20T00:33:44.207Z,11.25
2022-10-20T00:34:44.194Z,11.27
2022-10-20T00:35:44.150Z,11.25
2022-10-20T00:36:48.778Z,11.25
2022-10-20T00:37:44.130Z,11.27
2022-10-20T00:38:44.103Z,11.25
2022-10-20T00:39:44.131Z,11.27
2022-10-20T00:40:44.061Z,11.23
2022-10-20T00:41:44.061Z,11.25
2022-10-20T00:42:44.039Z,11.23
2022-10-20T00:43:44.045Z,11.23
2022-10-20T00:44:44.012Z,11.23
2022-10-20T00:45:44.063Z,11.23
2022-10-20T00:46:43.983Z,11.23
2022-10-20T00:48:43.970Z,11.19
2022-10-20T00:49:43.955Z,11.19
2022-10-20T00:50:43.938Z,11.19
2022-10-20T00:51:43.971Z,11.20
2022-10-20T00:52:43.930Z,11.19
2022-10-20T00:53:43.903Z,11.19
2022-10-20T00:54:43.884Z,11.18
2022-10-20T00:55:43.874Z,11.16
2022-10-20T00:56:43.888Z,11.18
2022-10-20T00:57:43.936Z,11.16
2022-10-20T00:58:43.853Z,11.15
2022-10-20T00:59:43.848Z,11.13
2022-10-20T01:00:43.825Z,11.13
2022-10-20T01:01:43.842Z,11.16
2022-10-20T01:02:43.781Z,11.15
2022-10-20T01:03:43.821Z,11.13
2022-10-20T01:04:43.787Z,11.15
2022-10-20T01:05:43.792Z,11.13
2022-10-20T01:06:43.736Z,11.13
2022-10-20T01:07:43.710Z,11.13
2022-10-20T01:08:43.794Z,11.12
2022-10-20T01:09:43.754Z,11.13
2022-10-20T01:10:43.664Z,11.12
2022-10-20T01:11:43.665Z,11.11
2022-10-20T01:12:43.633Z,11.12
2022-10-20T01:13:43.641Z,11.13
2022-10-20T01:14:43.609Z,11.11
2022-10-20T01:15:43.653Z,11.11
2022-10-20T01:16:43.634Z,11.11
2022-10-20T01:17:43.586Z,11.09
2022-10-20T01:18:43.553Z,11.09
2022-10-20T01:19:43.563Z,11.11
2022-10-20T01:20:43.538Z,11.11
2022-10-20T01:21:43.568Z,11.08
2022-10-20T01:22:43.501Z,11.08
2022-10-20T01:23:43.547Z,11.11
2022-10-20T01:24:43.479Z,11.09
2022-10-20T01:25:43.467Z,11.12
2022-10-20T01:26:43.462Z,11.08
2022-10-20T01:27:43.486Z,11.08
2022-10-20T01:28:43.428Z,11.11
2022-10-20T01:29:43.429Z,11.11
2022-10-20T01:30:43.393Z,11.11
2022-10-20T01:31:43.405Z,11.08
2022-10-20T01:32:43.363Z,11.08
2022-10-20T01:33:43.432Z,11.08
2022-10-20T01:34:43.346Z,11.05
2022-10-20T01:35:43.386Z,11.08
2022-10-20T01:36:43.324Z,11.04
2022-10-20T01:37:50.995Z,11.08
2022-10-20T01:38:43.293Z,11.09
2022-10-20T01:39:43.351Z,11.05
2022-10-20T01:40:43.257Z,11.05
2022-10-20T01:41:43.264Z,11.04
2022-10-20T01:42:43.243Z,11.05
2022-10-20T01:43:43.237Z,11.04
2022-10-20T01:44:43.217Z,11.04
2022-10-20T01:45:43.268Z,11.05
2022-10-20T01:46:43.200Z,11.08
2022-10-20T01:47:43.182Z,11.05
2022-10-20T01:48:43.159Z,11.05
2022-10-20T01:49:43.179Z,11.04
2022-10-20T01:50:43.212Z,11.05
2022-10-20T01:51:43.187Z,11.04
2022-10-20T01:52:43.160Z,11.04
2022-10-20T01:53:43.126Z,11.04
2022-10-20T01:54:43.175Z,11.05
2022-10-20T01:55:43.128Z,11.04
2022-10-20T01:56:43.079Z,11.04
2022-10-20T01:57:43.169Z,11.05
2022-10-20T01:58:43.022Z,11.03
2022-10-20T01:59:43.093Z,11.03
2022-10-20T02:00:43.065Z,11.04
2022-10-20T02:01:43.177Z,11.05
2022-10-20T02:02:42.999Z,11.05
2022-10-20T02:03:43.007Z,11.04
2022-10-20T02:04:42.969Z,11.05
2022-10-20T02:05:42.940Z,11.04
2022-10-20T02:06:42.932Z,11.05
2022-10-20T02:07:42.949Z,11.05
2022-10-20T02:08:42.931Z,11.05
2022-10-20T02:09:43.074Z,11.04
2022-10-20T02:10:42.862Z,11.04
2022-10-20T02:11:42.870Z,11.05
2022-10-20T02:12:42.838Z,11.08
2022-10-20T02:13:42.852Z,11.05
2022-10-20T02:14:42.808Z,11.05
2022-10-20T02:15:42.850Z,11.04
2022-10-20T02:16:42.791Z,11.05
2022-10-20T02:17:42.776Z,11.03
2022-10-20T02:18:42.757Z,11.03
2022-10-20T02:19:42.765Z,11.04
2022-10-20T02:20:42.734Z,11.03
2022-10-20T02:21:42.772Z,11.03
2022-10-20T02:22:42.708Z,11.01
2022-10-20T02:23:42.713Z,11.01
2022-10-20T02:24:42.670Z,11.01
2022-10-20T02:25:42.670Z,11.00
2022-10-20T02:26:42.661Z,11.00
2022-10-20T02:27:42.696Z,11.01
2022-10-20T02:28:42.632Z,10.98
2022-10-20T02:29:42.640Z,10.98
2022-10-20T02:30:42.592Z,11.00
2022-10-20T02:31:42.614Z,10.98
2022-10-20T02:32:42.564Z,10.98
2022-10-20T02:33:42.622Z,10.97
2022-10-20T02:34:42.726Z,10.95
2022-10-20T02:35:42.541Z,10.95
2022-10-20T02:36:42.526Z,10.94
2022-10-20T02:37:42.509Z,10.95
2022-10-20T02:38:42.489Z,10.94
2022-10-20T02:39:42.554Z,10.95
2022-10-20T02:40:42.461Z,10.94
2022-10-20T02:41:42.475Z,10.93
2022-10-20T02:42:42.444Z,10.93
2022-10-20T02:43:42.440Z,10.94
2022-10-20T02:44:42.431Z,10.94
2022-10-20T02:45:42.449Z,10.94
2022-10-20T02:46:42.377Z,10.93
2022-10-20T02:47:42.452Z,10.94
2022-10-20T02:48:42.401Z,10.94
2022-10-20T02:49:42.353Z,10.94
2022-10-20T02:50:42.350Z,10.94
2022-10-20T02:51:42.382Z,10.93
2022-10-20T02:52:42.301Z,10.94
2022-10-20T02:53:42.366Z,10.94
2022-10-20T02:54:42.276Z,10.95
2022-10-20T02:55:42.289Z,10.95
2022-10-20T02:56:42.264Z,10.94
2022-10-20T02:57:42.301Z,10.93
2022-10-20T02:58:42.267Z,10.94
2022-10-20T02:59:42.227Z,10.94
2022-10-20T03:00:42.199Z,10.93
2022-10-20T03:01:42.231Z,10.93
2022-10-20T03:02:42.197Z,10.94
2022-10-20T03:03:42.235Z,10.93
2022-10-20T03:04:42.167Z,10.91
2022-10-20T03:05:42.145Z,10.91
2022-10-20T03:06:42.126Z,10.91
2022-10-20T03:07:42.122Z,10.90
2022-10-20T03:08:42.129Z,10.90
2022-10-20T03:09:42.174Z,10.90
2022-10-20T03:10:42.069Z,10.91
2022-10-20T03:11:42.101Z,10.90
2022-10-20T03:12:42.058Z,10.90
2022-10-20T03:13:42.064Z,10.90
2022-10-20T03:14:42.006Z,10.87
2022-10-20T03:15:42.132Z,10.87
2022-10-20T03:16:41.992Z,10.90
2022-10-20T03:17:42.009Z,10.87
2022-10-20T03:18:41.998Z,10.87
2022-10-20T03:19:41.955Z,10.86
2022-10-20T03:20:41.964Z,10.86
2022-10-20T03:21:41.973Z,10.86
2022-10-20T03:22:41.957Z,10.85
2022-10-20T03:23:41.921Z,10.86
2022-10-20T03:24:41.877Z,10.87
2022-10-20T03:25:41.916Z,10.85
2022-10-20T03:26:41.863Z,10.85
2022-10-20T03:27:41.921Z,10.85
2022-10-20T03:28:41.832Z,10.82
2022-10-20T03:29:41.839Z,10.83
2022-10-20T03:30:41.823Z,10.85
2022-10-20T03:31:41.863Z,10.85
2022-10-20T03:32:41.770Z,10.83
2022-10-20T03:33:41.856Z,10.83
2022-10-20T03:34:41.743Z,10.83
2022-10-20T03:35:41.737Z,10.80
2022-10-20T03:36:41.762Z,10.80
2022-10-20T03:37:41.720Z,10.80
2022-10-20T03:38:41.697Z,10.80
2022-10-20T03:39:41.732Z,10.82
2022-10-20T03:40:41.676Z,10.82
2022-10-20T03:41:41.677Z,10.83
2022-10-20T03:42:41.657Z,10.80
2022-10-20T03:43:41.656Z,10.82
2022-10-20T03:44:41.622Z,10.83
2022-10-20T03:45:41.635Z,10.80
2022-10-20T03:46:41.627Z,10.82
2022-10-20T03:47:41.580Z,10.80
2022-10-20T03:48:41.569Z,10.79
2022-10-20T03:49:41.549Z,10.79
2022-10-20T03:50:41.559Z,10.78
2022-10-20T03:51:41.566Z,10.80
2022-10-20T03:52:41.528Z,10.78
2022-10-20T03:53:41.511Z,10.79
2022-10-20T03:54:41.486Z,10.76
2022-10-20T03:55:41.482Z,10.76
2022-10-20T03:56:41.459Z,10.78
2022-10-20T03:57:41.473Z,10.76
2022-10-20T03:58:41.473Z,10.78
2022-10-20T03:59:41.429Z,10.79
2022-10-20T04:00:41.463Z,10.76
2022-10-20T04:01:41.399Z,10.76
2022-10-20T04:02:41.390Z,10.78
2022-10-20T04:03:41.393Z,10.76
2022-10-20T04:04:41.363Z,10.76
2022-10-20T04:05:41.354Z,10.78
2022-10-20T04:06:41.339Z,10.76
2022-10-20T04:07:41.303Z,10.75
2022-10-20T04:08:41.355Z,10.73
2022-10-20T04:09:41.379Z,10.73
2022-10-20T04:10:41.305Z,10.75
2022-10-20T04:11:41.299Z,10.75
2022-10-20T04:12:41.260Z,10.73
2022-10-20T04:13:41.223Z,10.75
2022-10-20T04:14:41.229Z,10.70
2022-10-20T04:15:41.255Z,10.72
2022-10-20T04:16:41.234Z,10.72
2022-10-20T04:17:41.177Z,10.72
2022-10-20T04:18:41.170Z,10.70
2022-10-20T04:19:41.150Z,10.70
2022-10-20T04:20:44.329Z,10.70
2022-10-20T04:21:41.179Z,10.70
2022-10-20T04:22:41.135Z,10.70
2022-10-20T04:23:41.089Z,10.68
2022-10-20T04:24:41.093Z,10.68
2022-10-20T04:25:41.076Z,10.70
2022-10-20T04:26:41.188Z,10.68
2022-10-20T04:27:41.113Z,10.68
2022-10-20T04:28:41.051Z,10.68
2022-10-20T04:29:41.014Z,10.67
2022-10-20T04:30:41.022Z,10.68
2022-10-20T04:31:44.185Z,10.67
2022-10-20T04:32:41.017Z,10.67
2022-10-20T04:33:41.082Z,10.64
2022-10-20T04:34:40.963Z,10.65
2022-10-20T04:35:40.996Z,10.64
2022-10-20T04:36:40.967Z,10.64
2022-10-20T04:37:41.187Z,10.62
2022-10-20T04:38:41.648Z,10.64
2022-10-20T04:39:40.919Z,10.60
2022-10-20T04:40:40.881Z,10.64
2022-10-20T04:41:40.857Z,10.60
2022-10-20T04:42:40.846Z,10.61
2022-10-20T04:43:40.857Z,10.60
2022-10-20T04:44:40.899Z,10.58
2022-10-20T04:45:40.839Z,10.58
2022-10-20T04:46:40.826Z,10.57
2022-10-20T04:47:40.779Z,10.55
2022-10-20T04:48:40.777Z,10.52
2022-10-20T04:49:40.740Z,10.52
2022-10-20T04:50:40.734Z,10.48
2022-10-20T04:51:40.761Z,10.48
2022-10-20T04:52:40.755Z,10.48
2022-10-20T04:53:40.703Z,10.46
2022-10-20T04:54:40.691Z,10.45
2022-10-20T04:55:40.662Z,10.46
2022-10-20T04:56:40.666Z,10.45
2022-10-20T04:57:40.674Z,10.45
2022-10-20T04:58:40.699Z,10.43
2022-10-20T04:59:40.612Z,10.43
2022-10-20T05:00:40.698Z,10.43
2022-10-20T05:01:40.690Z,10.43
2022-10-20T05:02:40.600Z,10.43
2022-10-20T05:03:40.612Z,10.41
2022-10-20T05:04:40.699Z,10.43
2022-10-20T05:05:40.560Z,10.39
2022-10-20T05:06:40.521Z,10.39
2022-10-20T05:07:40.525Z,10.39
2022-10-20T05:08:40.614Z,10.39
2022-10-20T05:09:40.519Z,10.39
2022-10-20T05:10:40.468Z,10.41
2022-10-20T05:11:40.484Z,10.41
2022-10-20T05:12:40.544Z,10.41
2022-10-20T05:13:40.437Z,10.41
2022-10-20T05:14:40.501Z,10.38
2022-10-20T05:15:40.468Z,10.39
2022-10-20T05:16:40.413Z,10.39
2022-10-20T05:17:40.382Z,10.39
2022-10-20T05:18:40.375Z,10.39
2022-10-20T05:19:40.358Z,10.38
2022-10-20T05:20:41.356Z,10.39
2022-10-20T05:22:40.316Z,10.36
2022-10-20T05:23:40.299Z,10.36
2022-10-20T05:24:40.403Z,10.36
2022-10-20T05:25:40.287Z,10.36
2022-10-20T05:26:40.273Z,10.38
2022-10-20T05:27:40.285Z,10.36
2022-10-20T05:28:40.231Z,10.36
2022-10-20T05:29:40.224Z,10.39
2022-10-20T05:30:40.210Z,10.36
2022-10-20T05:31:40.137Z,10.36
2022-10-20T05:32:40.143Z,10.35
2022-10-20T05:33:40.147Z,10.35
2022-10-20T05:34:40.113Z,10.34
2022-10-20T05:35:40.078Z,10.34
2022-10-20T05:36:40.071Z,10.34
2022-10-20T05:37:40.050Z,10.35
2022-10-20T05:38:40.041Z,10.30
2022-10-20T05:39:40.125Z,10.30
2022-10-20T05:40:40.025Z,10.30
2022-10-20T05:41:39.990Z,10.30
2022-10-20T05:42:40.007Z,10.31
2022-10-20T05:43:39.998Z,10.28
2022-10-20T05:44:39.976Z,10.30
2022-10-20T05:45:39.983Z,10.30
2022-10-20T05:46:39.937Z,10.28
2022-10-20T05:47:39.911Z,10.30
2022-10-20T05:48:43.060Z,10.30
2022-10-20T05:49:39.901Z,10.30
2022-10-20T05:50:39.974Z,10.30
2022-10-20T05:51:40.064Z,10.31
2022-10-20T05:52:39.913Z,10.31
2022-10-20T05:53:39.829Z,10.34
2022-10-20T05:54:39.916Z,10.34
2022-10-20T05:55:39.811Z,10.38
2022-10-20T05:56:39.805Z,10.35
2022-10-20T05:57:39.856Z,10.36
2022-10-20T05:58:39.793Z,10.39
2022-10-20T05:59:39.748Z,10.39
2022-10-20T06:00:39.768Z,10.41
2022-10-20T06:01:39.734Z,10.42
2022-10-20T06:02:39.855Z,10.43
2022-10-20T06:03:39.741Z,10.42
2022-10-20T06:04:39.693Z,10.41
2022-10-20T06:05:39.672Z,10.42
2022-10-20T06:06:39.675Z,10.41
2022-10-20T06:07:39.639Z,10.42
2022-10-20T06:08:39.742Z,10.41
2022-10-20T06:09:39.673Z,10.43
2022-10-20T06:10:39.652Z,10.42
2022-10-20T06:11:39.932Z,10.43
2022-10-20T06:12:39.657Z,10.43
2022-10-20T06:13:39.570Z,10.45
2022-10-20T06:14:39.566Z,10.43
2022-10-20T06:15:39.590Z,10.46
2022-10-20T06:16:39.536Z,10.45
2022-10-20T06:17:39.532Z,10.48
2022-10-20T06:18:39.521Z,10.45
2022-10-20T06:19:39.482Z,10.46
2022-10-20T06:20:39.491Z,10.48
2022-10-20T06:21:39.601Z,10.48
2022-10-20T06:22:39.792Z,10.48
2022-10-20T06:23:39.458Z,10.49
2022-10-20T06:24:39.434Z,10.49
2022-10-20T06:25:39.400Z,10.49
2022-10-20T06:26:39.436Z,10.49
2022-10-20T06:27:39.428Z,10.48
2022-10-20T06:28:39.491Z,10.46
2022-10-20T06:29:39.348Z,10.46
2022-10-20T06:30:39.375Z,10.45
2022-10-20T06:31:39.334Z,10.46
2022-10-20T06:32:39.553Z,10.46
2022-10-20T06:33:39.336Z,10.45
2022-10-20T06:34:39.305Z,10.43
2022-10-20T06:35:39.269Z,10.45
2022-10-20T06:36:39.273Z,10.46
2022-10-20T06:37:39.252Z,10.46
2022-10-20T06:38:39.253Z,10.45
2022-10-20T06:39:39.260Z,10.48
2022-10-20T06:40:39.255Z,10.48
2022-10-20T06:41:39.189Z,10.49
2022-10-20T06:42:39.300Z,10.49
2022-10-20T06:43:39.214Z,10.52
2022-10-20T06:44:39.164Z,10.48
2022-10-20T06:45:39.170Z,10.49
2022-10-20T06:46:39.160Z,10.52
2022-10-20T06:47:39.652Z,10.49
2022-10-20T06:48:39.114Z,10.54
2022-10-20T06:49:39.112Z,10.54
2022-10-20T06:50:39.115Z,10.54
2022-10-20T06:51:39.109Z,10.55
2022-10-20T06:52:39.305Z,10.57
2022-10-20T06:53:42.671Z,10.57
2022-10-20T06:54:39.048Z,10.60
2022-10-20T06:55:39.011Z,10.61
2022-10-20T06:56:39.012Z,10.62
2022-10-20T06:57:39.008Z,10.64
2022-10-20T06:58:38.999Z,10.67
2022-10-20T06:59:38.953Z,10.67
2022-10-20T07:00:38.958Z,10.68
2022-10-20T07:01:38.973Z,10.73
2022-10-20T07:02:39.197Z,10.75
2022-10-20T07:03:38.962Z,10.76
2022-10-20T07:04:38.929Z,10.79
2022-10-20T07:05:38.873Z,10.79
2022-10-20T07:06:38.897Z,10.82
2022-10-20T07:07:38.853Z,10.82
2022-10-20T07:08:38.890Z,10.83
2022-10-20T07:09:38.861Z,10.83
2022-10-20T07:10:39.013Z,10.90
2022-10-20T07:11:38.805Z,10.90
2022-10-20T07:12:39.103Z,10.94
2022-10-20T07:13:38.777Z,10.95
2022-10-20T07:14:38.779Z,10.98
2022-10-20T07:15:38.779Z,11.01
2022-10-20T07:16:38.782Z,11.00
2022-10-20T07:17:38.726Z,11.01
2022-10-20T07:18:38.765Z,11.03
2022-10-20T07:19:38.726Z,11.05
2022-10-20T07:20:38.691Z,11.12
2022-10-20T07:21:41.527Z,11.12
2022-10-20T07:22:39.205Z,11.15
2022-10-20T07:23:38.642Z,11.16
2022-10-20T07:24:38.640Z,11.19
2022-10-20T07:25:38.659Z,11.18
2022-10-20T07:26:38.618Z,11.16
2022-10-20T07:27:38.664Z,11.18
2022-10-20T07:28:38.585Z,11.19
2022-10-20T07:29:38.586Z,11.23
2022-10-20T07:30:38.555Z,11.25
2022-10-20T07:31:38.631Z,11.27
2022-10-20T07:32:38.982Z,11.30
2022-10-20T07:33:38.541Z,11.31
2022-10-20T07:34:38.515Z,11.33
2022-10-20T07:35:38.488Z,11.36
2022-10-20T07:36:38.468Z,11.38
2022-10-20T07:37:38.954Z,11.43
2022-10-20T07:38:38.477Z,11.41
2022-10-20T07:39:38.458Z,11.43
2022-10-20T07:40:38.443Z,11.46
2022-10-20T07:41:38.526Z,11.49
2022-10-20T07:42:38.982Z,11.54
2022-10-20T07:43:39.998Z,11.55
2022-10-20T07:44:38.407Z,11.61
2022-10-20T07:45:38.387Z,11.58
2022-10-20T07:46:38.341Z,11.59
2022-10-20T07:47:40.059Z,11.61
2022-10-20T07:48:38.332Z,11.62
2022-10-20T07:49:44.067Z,11.66
2022-10-20T07:50:38.297Z,11.66
2022-10-20T07:51:38.374Z,11.69
2022-10-20T07:52:38.604Z,11.73
2022-10-20T07:53:44.786Z,11.74
2022-10-20T07:54:38.253Z,11.77
2022-10-20T07:55:39.165Z,11.77
2022-10-20T07:56:38.264Z,11.77
2022-10-20T07:57:38.245Z,11.80
2022-10-20T07:58:38.178Z,11.84
2022-10-20T07:59:38.165Z,11.88
2022-10-20T08:01:38.256Z,11.89
2022-10-20T08:02:38.634Z,11.93
2022-10-20T08:03:38.164Z,11.89
2022-10-20T08:04:38.127Z,11.96
2022-10-20T08:05:38.110Z,12.04
2022-10-20T08:06:39.218Z,12.07
2022-10-20T08:07:38.067Z,12.11
2022-10-20T08:08:38.075Z,12.14
2022-10-20T08:09:38.172Z,12.17
2022-10-20T08:10:38.040Z,12.22
2022-10-20T08:11:38.015Z,12.22
2022-10-20T08:12:38.340Z,12.23
2022-10-20T08:13:37.983Z,12.23
2022-10-20T08:14:37.973Z,12.28
2022-10-20T08:15:38.215Z,12.25
2022-10-20T08:16:37.983Z,12.29
2022-10-20T08:17:37.960Z,12.28
2022-10-20T08:18:39.030Z,12.33
2022-10-20T08:19:40.982Z,12.30
2022-10-20T08:20:38.846Z,12.25
2022-10-20T08:21:37.900Z,12.30
2022-10-20T08:22:38.212Z,12.38
2022-10-20T08:23:37.871Z,12.40
2022-10-20T08:24:37.835Z,12.43
2022-10-20T08:25:37.840Z,12.46
2022-10-20T08:26:37.858Z,12.47
2022-10-20T08:27:37.903Z,12.44
2022-10-20T08:28:37.817Z,12.44
2022-10-20T08:29:37.768Z,12.43
2022-10-20T08:30:37.759Z,12.41
2022-10-20T08:31:37.747Z,12.41
2022-10-20T08:32:37.963Z,12.46
2022-10-20T08:33:37.803Z,12.44
2022-10-20T08:34:37.702Z,12.43
2022-10-20T08:35:37.682Z,12.38
2022-10-20T08:36:37.683Z,12.35
2022-10-20T08:37:38.304Z,12.35
2022-10-20T08:38:37.666Z,12.33
2022-10-20T08:39:37.682Z,12.30
2022-10-20T08:40:37.613Z,12.26
2022-10-20T08:41:55.508Z,12.26
2022-10-20T08:42:37.589Z,12.28
2022-10-20T08:43:37.594Z,12.29
2022-10-20T08:44:37.584Z,12.30
2022-10-20T08:45:38.608Z,12.32
2022-10-20T08:46:37.531Z,12.35
2022-10-20T08:47:37.787Z,12.36
2022-10-20T08:48:37.531Z,12.40
2022-10-20T08:49:37.502Z,12.44
2022-10-20T08:50:37.493Z,12.44
2022-10-20T08:51:37.524Z,12.53
2022-10-20T08:52:37.461Z,12.62
2022-10-20T08:53:37.443Z,12.71
2022-10-20T08:54:37.441Z,12.84
2022-10-20T08:55:37.433Z,12.95
2022-10-20T08:56:37.396Z,13.04
2022-10-20T08:57:37.629Z,13.11
2022-10-20T08:58:37.365Z,13.20
2022-10-20T08:59:39.828Z,13.26
2022-10-20T09:00:37.363Z,13.24
2022-10-20T09:01:37.423Z,13.26
2022-10-20T09:02:37.325Z,13.35
2022-10-20T09:03:37.351Z,13.38
2022-10-20T09:04:37.353Z,13.39
2022-10-20T09:05:37.338Z,13.42
2022-10-20T09:06:37.334Z,13.43
2022-10-20T09:07:37.565Z,13.46
2022-10-20T09:08:37.312Z,13.49
2022-10-20T09:09:37.284Z,13.54
2022-10-20T09:10:37.218Z,13.58
2022-10-20T09:11:37.239Z,13.63
2022-10-20T09:12:37.200Z,13.63
2022-10-20T09:13:37.277Z,13.63
2022-10-20T09:14:37.167Z,13.64
2022-10-20T09:15:37.199Z,13.72
2022-10-20T09:16:42.193Z,13.73
2022-10-20T09:17:37.569Z,13.75
2022-10-20T09:18:37.120Z,13.82
2022-10-20T09:19:37.166Z,13.96
2022-10-20T09:20:37.095Z,14.03
2022-10-20T09:21:37.152Z,14.15
2022-10-20T09:22:37.045Z,14.26
2022-10-20T09:23:41.138Z,14.34
2022-10-20T09:24:37.036Z,14.46
2022-10-20T09:25:37.056Z,14.51
2022-10-20T09:26:57.447Z,14.63
2022-10-20T09:27:37.443Z,14.64
2022-10-20T09:28:49.223Z,14.46
2022-10-20T09:29:37.019Z,14.49
2022-10-20T09:30:36.942Z,14.55
2022-10-20T09:31:36.959Z,14.53
2022-10-20T09:32:52.398Z,14.41
2022-10-20T09:33:37.047Z,14.30
2022-10-20T09:34:36.884Z,14.26
2022-10-20T09:35:36.914Z,14.13
2022-10-20T09:36:36.856Z,14.09
2022-10-20T09:37:36.871Z,14.03
2022-10-20T09:38:37.456Z,14.03
2022-10-20T09:39:39.417Z,13.93
2022-10-20T09:40:36.816Z,13.88
2022-10-20T09:41:36.809Z,13.83
2022-10-20T09:42:37.137Z,13.85
2022-10-20T09:43:36.820Z,13.90
2022-10-20T09:44:36.780Z,13.94
2022-10-20T09:45:36.874Z,13.94
2022-10-20T09:46:36.728Z,13.94
2022-10-20T09:47:36.748Z,13.94
2022-10-20T09:48:36.699Z,13.98
2022-10-20T09:49:36.713Z,14.01
2022-10-20T09:50:36.705Z,14.04
2022-10-20T09:51:36.724Z,14.08
2022-10-20T09:52:37.027Z,14.08
2022-10-20T09:53:36.659Z,14.12
2022-10-20T09:54:36.618Z,14.13
2022-10-20T09:55:36.645Z,14.13
2022-10-20T09:56:36.590Z,14.16
2022-10-20T09:57:36.662Z,14.16
2022-10-20T09:58:36.582Z,14.16
2022-10-20T09:59:36.582Z,14.18
2022-10-20T10:00:37.936Z,14.22
2022-10-20T10:01:36.559Z,14.22
2022-10-20T10:02:36.724Z,14.26
2022-10-20T10:03:36.541Z,14.27
2022-10-20T10:04:36.505Z,14.30
2022-10-20T10:05:36.527Z,14.34
2022-10-20T10:06:36.477Z,14.37
2022-10-20T10:07:36.491Z,14.38
2022-10-20T10:08:36.475Z,14.44
2022-10-20T10:09:36.473Z,14.51
2022-10-20T10:10:36.411Z,14.55
2022-10-20T10:11:36.445Z,14.59
2022-10-20T10:12:36.773Z,14.71
2022-10-20T10:13:36.406Z,14.77
2022-10-20T10:14:36.383Z,14.77
2022-10-20T10:15:36.395Z,14.78
2022-10-20T10:16:36.335Z,14.83
2022-10-20T10:17:36.680Z,14.79
2022-10-20T10:18:36.293Z,14.86
2022-10-20T10:19:36.325Z,14.87
2022-10-20T10:20:36.273Z,14.90
2022-10-20T10:21:36.301Z,14.96
2022-10-20T10:22:36.573Z,14.95
2022-10-20T10:23:36.264Z,15.01
2022-10-20T10:24:36.252Z,15.05
2022-10-20T10:25:36.226Z,15.12
2022-10-20T10:26:36.201Z,15.19
2022-10-20T10:27:36.266Z,15.20
2022-10-20T10:28:36.171Z,15.20
2022-10-20T10:29:36.188Z,15.10
2022-10-20T10:30:36.151Z,15.04
2022-10-20T10:31:36.173Z,14.92
2022-10-20T10:32:36.427Z,14.86
2022-10-20T10:33:36.165Z,14.83
2022-10-20T10:34:36.115Z,14.78
2022-10-20T10:35:36.099Z,14.78
2022-10-20T10:36:36.178Z,14.74
2022-10-20T10:37:36.129Z,14.73
2022-10-20T10:38:36.059Z,14.69
2022-10-20T10:39:36.116Z,14.66
2022-10-20T10:40:36.038Z,14.58
2022-10-20T10:41:36.050Z,14.51
2022-10-20T10:42:36.391Z,14.51
2022-10-20T10:43:36.015Z,14.45
2022-10-20T10:44:35.979Z,14.46
2022-10-20T10:45:36.055Z,14.44
2022-10-20T10:46:35.973Z,14.44
2022-10-20T10:47:39.374Z,14.44
2022-10-20T10:48:35.947Z,14.44
2022-10-20T10:49:35.904Z,14.41
2022-10-20T10:50:35.902Z,14.44
2022-10-20T10:51:35.959Z,14.44
2022-10-20T10:52:35.875Z,14.46
2022-10-20T10:53:35.898Z,14.45
2022-10-20T10:54:35.851Z,14.40
2022-10-20T10:55:51.056Z,14.40
2022-10-20T10:56:35.846Z,14.45
2022-10-20T10:57:36.135Z,14.45
2022-10-20T10:58:35.814Z,14.41
2022-10-20T10:59:35.780Z,14.38
2022-10-20T11:00:35.789Z,14.34
2022-10-20T11:01:35.764Z,14.33
2022-10-20T11:02:36.003Z,14.33
2022-10-20T11:03:37.726Z,14.34
2022-10-20T11:04:35.725Z,14.34
2022-10-20T11:05:35.694Z,14.40
2022-10-20T11:06:35.697Z,14.44
2022-10-20T11:07:36.135Z,14.45
2022-10-20T11:08:35.688Z,14.51
2022-10-20T11:09:35.666Z,14.61
2022-10-20T11:10:35.609Z,14.59
2022-10-20T11:11:35.630Z,14.66
2022-10-20T11:12:35.603Z,14.67
2022-10-20T11:13:35.584Z,14.70
2022-10-20T11:14:35.554Z,14.73
2022-10-20T11:15:35.624Z,14.71
2022-10-20T11:16:35.593Z,14.66
2022-10-20T11:17:35.870Z,14.61
2022-10-20T11:18:35.504Z,14.53
2022-10-20T11:19:35.516Z,14.58
2022-10-20T11:20:35.497Z,14.61
2022-10-20T11:21:35.550Z,14.66
2022-10-20T11:22:35.495Z,14.70
2022-10-20T11:23:35.458Z,14.74
2022-10-20T11:24:35.466Z,14.79
2022-10-20T11:25:35.505Z,14.83
2022-10-20T11:26:35.419Z,14.86
2022-10-20T11:27:35.715Z,14.87
2022-10-20T11:28:35.373Z,14.87
2022-10-20T11:29:35.377Z,14.90
2022-10-20T11:30:35.380Z,14.90
2022-10-20T11:31:35.350Z,14.90
2022-10-20T11:33:36.931Z,14.93
2022-10-20T11:34:35.301Z,14.93
2022-10-20T11:35:35.294Z,14.95
2022-10-20T11:36:35.257Z,14.93
2022-10-20T11:37:35.767Z,14.93
2022-10-20T11:38:35.251Z,14.90
2022-10-20T11:39:35.273Z,14.89
2022-10-20T11:40:35.254Z,14.90
2022-10-20T11:41:35.281Z,14.87
2022-10-20T11:42:35.445Z,14.89
2022-10-20T11:43:35.209Z,14.85
2022-10-20T11:44:35.202Z,14.85
2022-10-20T11:45:35.964Z,14.83
2022-10-20T11:46:35.123Z,14.79
2022-10-20T11:47:35.177Z,14.78
2022-10-20T11:48:35.134Z,14.78
2022-10-20T11:49:35.101Z,14.77
2022-10-20T11:50:35.080Z,14.73
2022-10-20T11:51:35.086Z,14.71
2022-10-20T11:52:35.362Z,14.70
2022-10-20T11:53:35.092Z,14.70
2022-10-20T11:54:35.049Z,14.67
2022-10-20T11:55:35.033Z,14.73
2022-10-20T11:56:34.992Z,14.71
2022-10-20T11:57:35.002Z,14.74
2022-10-20T11:58:35.027Z,14.82
2022-10-20T11:59:34.969Z,14.85
2022-10-20T12:00:34.948Z,14.87
2022-10-20T12:01:35.297Z,14.90
2022-10-20T12:02:35.245Z,14.92
2022-10-20T12:03:34.957Z,14.95
2022-10-20T12:04:34.911Z,14.99
2022-10-20T12:05:34.893Z,14.99
2022-10-20T12:06:34.894Z,14.96
2022-10-20T12:07:34.858Z,14.97
2022-10-20T12:08:34.922Z,15.01
2022-10-20T12:09:34.919Z,15.03
2022-10-20T12:10:34.819Z,15.05
2022-10-20T12:11:34.792Z,15.12
2022-10-20T12:12:35.139Z,15.10
2022-10-20T12:13:34.781Z,15.12
2022-10-20T12:14:34.811Z,15.14
2022-10-20T12:15:34.765Z,15.12
2022-10-20T12:16:34.737Z,15.11
2022-10-20T12:17:34.706Z,15.10
2022-10-20T12:18:34.758Z,15.10
2022-10-20T12:19:34.678Z,15.07
2022-10-20T12:20:34.725Z,15.07
2022-10-20T12:21:34.691Z,15.08
2022-10-20T12:22:34.968Z,15.08
2022-10-20T12:23:34.624Z,15.07
2022-10-20T12:24:34.639Z,15.07
2022-10-20T12:25:34.631Z,15.05
2022-10-20T12:26:34.616Z,15.03
2022-10-20T12:27:34.580Z,15.05
2022-10-20T12:28:34.889Z,15.08
2022-10-20T12:29:34.594Z,15.14
2022-10-20T12:30:34.603Z,15.11
2022-10-20T12:31:34.563Z,15.12
2022-10-20T12:32:34.799Z,15.15
2022-10-20T12:33:34.539Z,15.17
2022-10-20T12:34:34.521Z,15.15
2022-10-20T12:35:34.486Z,15.15
2022-10-20T12:36:34.591Z,15.17
2022-10-20T12:37:34.818Z,15.17
2022-10-20T12:38:34.464Z,15.20
2022-10-20T12:39:34.439Z,15.17
2022-10-20T12:40:34.419Z,15.20
2022-10-20T12:41:34.421Z,15.19
2022-10-20T12:42:34.402Z,15.19
2022-10-20T12:43:34.393Z,15.17
2022-10-20T12:44:34.363Z,15.17
2022-10-20T12:45:34.354Z,15.17
2022-10-20T12:46:34.387Z,15.17
2022-10-20T12:47:34.685Z,15.19
2022-10-20T12:48:34.314Z,15.17
2022-10-20T12:49:34.291Z,15.15
2022-10-20T12:50:34.290Z,15.12
2022-10-20T12:51:34.259Z,15.08
2022-10-20T12:52:34.296Z,15.05
2022-10-20T12:53:34.233Z,15.04
2022-10-20T12:54:34.233Z,15.01
2022-10-20T12:55:35.077Z,14.99
2022-10-20T12:56:34.201Z,14.96